Aeroporto :
LOGIN :

Iscrizione | Disclaimer

   EN    FR    IT 

 










Sommario :    VFR   VFR Marginale   IFR   IFR Intensivo   IFR Molto Intensivo
Visibilità : 
Base nubi : 
>= 8 km
>= 3000ft
5 / 8 km
1000 / 3000 ft
1500m / 5 km
500 / 1000 ft
800 / 1500m
200 / 500 ft
< 800m
< 200 ft
Simboli :   Temporali  Nebbia  Neve Forte  Precipitazioni Forti  Vento > 20 kt
SIGMETs :   Varie  Temporali  Ghiacco  Turbolenza  Onda orograficha  Ceneri Vulcaniche






- Altitudine del aeroporto : 446 ft
- Codice IATA : VNE


LFRV - Vannes-Meucon

ULTIMO METAR :
  • 261530Z AUTO 20008KT 160V230 9000 OVC005/// ///CB 10/10 Q1013

METARs OBSOLETI :
  • 261500Z AUTO 20010KT 170V240 5000 -RA BR OVC008/// ///CB 10/10 Q1013
  • 261430Z AUTO 21011KT 170V260 9999 OVC009 11/10 Q1013
  • 261400Z AUTO 20009KT 9999 OVC009/// ///TCU 11/10 Q1013
  • 261330Z AUTO 20010KT 170V230 9999 OVC009/// ///TCU 11/10 Q1014
  • 261300Z AUTO 20011KT 170V240 9999 OVC010 11/10 Q1014

TAF N/A



MetMap, La meteo Aeronautica in un colpo d'occhio ! - Copyright ORBIFLY Dicembre 2007 - Disclaimer

ORBIFLY MET'MAP TEAM :

Programmazione e sviluppo : Alexandra Zaïnal
Concezione : Baudouin d'Aumeries
Aiuto per la programmazione : Marc-Olivier Méhu
Supporto tecnico e logistico : Manuel Goepfert
Aiuto per la traduzione : Arnaldo La Scala

Contatto : metmap@orbifly.com




FONTI E CREDITI :

   NOAA